Time;durP1;ratioP1;P1;durP2;ratioP2;P2;SDS_P1;SDS_P2;PMS_P1;PMS_P2;Temp;Humidity;BMP_temperature;BMP_pressure;BME280_temperature;BME280_humidity;BME280_pressure;Samples;Min_cycle;Max_cycle;Signal;HPM_P1;HPM_P2
2023/02/23 00:00:55;;;;;;;16.70;8.82;;;;;;;;;;4974582;28;20066;-61
2023/02/23 00:03:21;;;;;;;11.68;7.68;;;;;;;;;;4975248;28;20415;-61
2023/02/23 00:05:48;;;;;;;9.85;7.60;;;;;;;;;;4958048;28;20030;-61
2023/02/23 00:08:13;;;;;;;9.93;7.13;;;;;;;;;;4974906;28;20026;-60
2023/02/23 00:10:39;;;;;;;10.70;8.30;;;;;;;;;;4975118;28;20035;-60
2023/02/23 00:13:05;;;;;;;10.75;6.97;;;;;;;;;;4957356;28;20035;-60
2023/02/23 00:15:30;;;;;;;9.57;7.13;;;;;;;;;;4957377;28;20030;-60
2023/02/23 00:17:56;;;;;;;8.50;6.47;;;;;;;;;;4975123;28;20034;-60
2023/02/23 00:20:28;;;;;;;8.75;6.78;;;;;;;;;;4975053;28;20110;-60
2023/02/23 00:22:55;;;;;;;8.05;6.30;;;;;;;;;;4974858;28;20474;-63
2023/02/23 00:25:21;;;;;;;7.40;6.55;;;;;;;;;;4974250;28;20035;-64
2023/02/23 00:27:47;;;;;;;8.35;6.50;;;;;;;;;;4975131;28;20038;-64
2023/02/23 00:30:12;;;;;;;7.60;6.20;;;;;;;;;;4974473;28;20110;-64
2023/02/23 00:32:42;;;;;;;7.45;6.68;;;;;;;;;;4957755;28;20059;-60
2023/02/23 00:35:16;;;;;;;6.47;5.73;;;;;;;;;;4974710;28;20097;-62
2023/02/23 00:41:29;;;;;;;7.57;5.97;;;;;;;;;;2397672;26;20050;-62
2023/02/23 00:43:59;;;;;;;7.65;6.28;;;;;;;;;;4996495;28;20533;-62
2023/02/23 00:46:27;;;;;;;7.65;6.03;;;;;;;;;;5012967;28;20026;-62
2023/02/23 00:48:55;;;;;;;9.68;6.68;;;;;;;;;;5012588;28;20072;-62
2023/02/23 00:51:21;;;;;;;7.90;6.47;;;;;;;;;;5013809;28;20030;-62
2023/02/23 00:53:50;;;;;;;6.57;5.97;;;;;;;;;;4995936;28;20536;-62
2023/02/23 00:56:16;;;;;;;9.43;6.05;;;;;;;;;;4996435;28;20049;-63
2023/02/23 00:58:43;;;;;;;12.18;7.60;;;;;;;;;;4997444;28;20022;-63
2023/02/23 01:01:09;;;;;;;11.25;7.20;;;;;;;;;;5014672;28;20037;-63
2023/02/23 01:03:35;;;;;;;10.43;6.47;;;;;;;;;;4995666;28;20026;-63
2023/02/23 01:06:04;;;;;;;13.15;6.88;;;;;;;;;;5014036;28;20362;-63
2023/02/23 01:08:34;;;;;;;9.10;6.38;;;;;;;;;;5013277;28;20026;-66
2023/02/23 01:11:04;;;;;;;8.23;6.35;;;;;;;;;;4996236;28;20041;-66
2023/02/23 01:13:30;;;;;;;9.40;6.45;;;;;;;;;;4999685;28;20037;-67
2023/02/23 01:15:56;;;;;;;10.13;7.20;;;;;;;;;;4999534;28;20034;-66
2023/02/23 01:18:30;;;;;;;9.00;6.30;;;;;;;;;;4999580;28;20142;-66
2023/02/23 01:20:55;;;;;;;7.40;6.30;;;;;;;;;;4999498;28;20026;-66
2023/02/23 01:23:21;;;;;;;8.30;6.38;;;;;;;;;;4998828;28;20369;-60
2023/02/23 01:25:47;;;;;;;9.65;6.70;;;;;;;;;;5016920;28;20076;-60
2023/02/23 01:28:13;;;;;;;9.60;6.60;;;;;;;;;;4983393;28;20030;-61
2023/02/23 01:30:39;;;;;;;8.45;6.43;;;;;;;;;;4999142;28;20497;-62
2023/02/23 01:33:06;;;;;;;7.75;5.75;;;;;;;;;;5017224;28;20030;-62
2023/02/23 01:35:32;;;;;;;8.77;7.20;;;;;;;;;;5016408;28;20099;-61
2023/02/23 01:37:58;;;;;;;8.68;6.97;;;;;;;;;;5015666;28;20500;-65
2023/02/23 01:40:30;;;;;;;7.70;6.90;;;;;;;;;;5015946;28;20038;-66
2023/02/23 01:42:57;;;;;;;8.55;6.80;;;;;;;;;;5016645;28;20462;-66
2023/02/23 01:45:28;;;;;;;8.05;6.43;;;;;;;;;;5016817;28;20498;-66
2023/02/23 01:47:55;;;;;;;9.65;6.70;;;;;;;;;;4998951;28;20394;-65
2023/02/23 01:50:22;;;;;;;12.13;8.13;;;;;;;;;;4998531;28;20041;-65
2023/02/23 01:52:50;;;;;;;8.85;7.57;;;;;;;;;;5016668;28;20477;-65
2023/02/23 01:55:23;;;;;;;9.27;7.20;;;;;;;;;;4998619;28;20026;-65
2023/02/23 01:57:52;;;;;;;8.45;6.53;;;;;;;;;;5016477;28;20045;-65
2023/02/23 02:00:19;;;;;;;9.27;6.43;;;;;;;;;;4998631;28;20125;-65
2023/02/23 02:02:44;;;;;;;7.82;6.75;;;;;;;;;;4998474;28;20030;-65
2023/02/23 02:05:13;;;;;;;9.57;6.65;;;;;;;;;;4998908;28;20116;-65
2023/02/23 02:07:40;;;;;;;8.45;7.13;;;;;;;;;;4998252;28;20030;-66
2023/02/23 02:12:38;;;;;;;10.68;7.57;;;;;;;;;;5015293;28;20516;-61
2023/02/23 02:15:06;;;;;;;8.13;6.57;;;;;;;;;;4982423;28;20029;-60
2023/02/23 02:17:46;;;;;;;8.93;7.30;;;;;;;;;;5016331;28;20462;-61
2023/02/23 02:20:31;;;;;;;9.43;7.50;;;;;;;;;;4998053;28;20030;-61
2023/02/23 02:23:13;;;;;;;8.10;7.22;;;;;;;;;;5015132;28;20037;-61
2023/02/23 02:25:54;;;;;;;9.70;7.53;;;;;;;;;;5015862;28;20022;-61
2023/02/23 02:28:33;;;;;;;;;;;;;;;;;;5016037;28;20076;-62
2023/02/23 02:31:18;;;;;;;9.93;7.43;;;;;;;;;;5015961;28;19910;-63
2023/02/23 02:33:57;;;;;;;10.05;7.10;;;;;;;;;;5015532;28;20030;-62
2023/02/23 02:36:36;;;;;;;11.45;7.93;;;;;;;;;;4998043;28;20030;-62
2023/02/23 02:39:22;;;;;;;10.15;7.72;;;;;;;;;;5015909;28;20029;-63
2023/02/23 02:41:52;;;;;;;11.95;8.50;;;;;;;;;;4981577;28;20490;-62
2023/02/23 02:44:24;;;;;;;12.38;8.80;;;;;;;;;;4997871;28;20022;-64
2023/02/23 02:46:52;;;;;;;12.07;8.80;;;;;;;;;;5015372;28;20030;-65
2023/02/23 02:49:17;;;;;;;12.88;8.50;;;;;;;;;;5015278;28;20034;-63
2023/02/23 02:51:53;;;;;;;12.30;7.97;;;;;;;;;;5015580;28;20072;-66
2023/02/23 02:54:22;;;;;;;10.75;8.27;;;;;;;;;;5015319;28;20038;-66
2023/02/23 02:56:49;;;;;;;12.15;8.23;;;;;;;;;;5015610;28;20026;-62
2023/02/23 04:19:27;;;;;;;9.07;6.78;;;;;;;;;;4994383;28;20142;-65
2023/02/23 04:21:55;;;;;;;10.57;6.85;;;;;;;;;;4976450;28;20462;-61
2023/02/23 04:24:20;;;;;;;9.48;6.72;;;;;;;;;;4994129;28;20034;-64
2023/02/23 04:26:48;;;;;;;8.90;6.63;;;;;;;;;;4994276;28;20023;-65
2023/02/23 04:29:14;;;;;;;7.90;6.40;;;;;;;;;;4994323;28;20533;-65
2023/02/23 04:31:40;;;;;;;8.32;6.53;;;;;;;;;;4993587;28;20119;-65
2023/02/23 04:34:06;;;;;;;8.98;7.15;;;;;;;;;;4993944;28;20041;-65
2023/02/23 04:36:31;;;;;;;9.13;6.85;;;;;;;;;;4976471;28;20470;-65
2023/02/23 04:38:57;;;;;;;8.02;6.82;;;;;;;;;;4993948;28;20030;-65
2023/02/23 04:41:24;;;;;;;9.10;6.75;;;;;;;;;;4994182;28;20058;-65
2023/02/23 04:43:50;;;;;;;9.32;6.43;;;;;;;;;;4994128;28;20030;-65
2023/02/23 04:46:15;;;;;;;9.13;6.90;;;;;;;;;;4977161;28;20512;-65
2023/02/23 04:48:40;;;;;;;7.68;6.93;;;;;;;;;;4997774;28;20034;-65
2023/02/23 04:51:06;;;;;;;7.43;6.57;;;;;;;;;;4997552;28;20089;-65
2023/02/23 04:53:31;;;;;;;7.13;6.45;;;;;;;;;;4997950;28;20390;-65
2023/02/23 04:55:57;;;;;;;9.15;6.75;;;;;;;;;;4980423;28;20053;-61
2023/02/23 04:58:22;;;;;;;7.60;6.80;;;;;;;;;;4997651;28;20093;-64
2023/02/23 05:00:49;;;;;;;9.20;7.40;;;;;;;;;;4997339;28;20041;-65
2023/02/23 05:03:16;;;;;;;7.60;6.90;;;;;;;;;;4997339;28;20143;-65
2023/02/23 05:05:43;;;;;;;9.65;6.97;;;;;;;;;;4997471;28;20129;-65
2023/02/23 05:08:09;;;;;;;8.95;6.90;;;;;;;;;;4995158;28;20484;-65
2023/02/23 05:10:38;;;;;;;7.88;6.70;;;;;;;;;;5016426;28;20658;-67
2023/02/23 05:13:03;;;;;;;8.65;6.97;;;;;;;;;;5017320;28;20481;-68
2023/02/23 05:15:29;;;;;;;8.57;7.25;;;;;;;;;;5016163;28;20042;-64
2023/02/23 05:17:55;;;;;;;7.72;6.93;;;;;;;;;;5017587;28;20121;-64
2023/02/23 05:20:20;;;;;;;9.60;7.53;;;;;;;;;;5017004;28;20030;-64
2023/02/23 05:22:46;;;;;;;10.57;7.95;;;;;;;;;;5016929;28;20054;-65
2023/02/23 05:25:11;;;;;;;9.48;7.00;;;;;;;;;;5017267;28;20033;-69
2023/02/23 05:27:37;;;;;;;9.55;7.03;;;;;;;;;;4999279;28;20022;-65
2023/02/23 05:30:08;;;;;;;9.93;7.40;;;;;;;;;;5016326;28;20148;-69
2023/02/23 05:32:34;;;;;;;8.73;7.28;;;;;;;;;;5016601;28;20029;-70
2023/02/23 05:34:59;;;;;;;8.38;7.05;;;;;;;;;;5015148;28;20030;-68
2023/02/23 05:37:25;;;;;;;8.50;7.50;;;;;;;;;;4998607;28;20218;-68
2023/02/23 05:39:50;;;;;;;8.27;7.20;;;;;;;;;;5015881;28;20033;-68
2023/02/23 05:42:16;;;;;;;8.13;6.65;;;;;;;;;;5016232;28;20037;-68
2023/02/23 05:44:41;;;;;;;9.93;7.68;;;;;;;;;;5016282;28;20149;-68
2023/02/23 05:47:10;;;;;;;10.23;7.30;;;;;;;;;;5016436;28;20022;-67
2023/02/23 05:49:35;;;;;;;8.57;7.07;;;;;;;;;;5016129;28;20038;-68
2023/02/23 05:52:00;;;;;;;7.43;6.68;;;;;;;;;;4997955;28;20033;-68
2023/02/23 05:54:26;;;;;;;7.82;6.97;;;;;;;;;;5014949;28;20037;-68
2023/02/23 05:56:51;;;;;;;8.15;7.35;;;;;;;;;;5015085;28;20468;-68
2023/02/23 05:59:16;;;;;;;10.68;7.20;;;;;;;;;;5013885;28;20030;-68
2023/02/23 06:01:42;;;;;;;9.30;7.38;;;;;;;;;;5015092;28;20037;-64
2023/02/23 06:04:08;;;;;;;8.98;7.55;;;;;;;;;;5014960;28;20046;-64
2023/02/23 06:06:33;;;;;;;7.93;7.07;;;;;;;;;;5012386;28;20100;-64
2023/02/23 06:08:59;;;;;;;8.70;6.78;;;;;;;;;;4978116;28;20042;-64
2023/02/23 06:11:24;;;;;;;9.52;7.85;;;;;;;;;;4994912;28;20034;-68
2023/02/23 06:13:51;;;;;;;9.45;7.38;;;;;;;;;;4995696;28;20037;-66
2023/02/23 06:16:18;;;;;;;8.85;7.75;;;;;;;;;;4977883;28;20022;-66
2023/02/23 06:18:43;;;;;;;8.77;7.88;;;;;;;;;;4995287;28;20014;-66
2023/02/23 06:21:09;;;;;;;18.33;14.23;;;;;;;;;;4995502;28;20396;-66
2023/02/23 06:23:36;;;;;;;33.13;29.83;;;;;;;;;;4994180;28;20154;-67
2023/02/23 06:26:02;;;;;;;16.88;15.13;;;;;;;;;;4995109;28;20035;-67
2023/02/23 06:28:27;;;;;;;8.68;7.80;;;;;;;;;;4994254;28;20048;-75
2023/02/23 06:30:53;;;;;;;12.35;9.88;;;;;;;;;;4994663;28;20089;-64
2023/02/23 06:33:19;;;;;;;19.63;17.48;;;;;;;;;;4993369;28;20034;-72
2023/02/23 06:35:45;;;;;;;10.43;9.40;;;;;;;;;;4992245;28;20034;-72
2023/02/23 06:38:10;;;;;;;28.45;23.50;;;;;;;;;;4993498;28;20050;-64
2023/02/23 06:40:37;;;;;;;11.27;9.40;;;;;;;;;;4993814;28;20053;-63
2023/02/23 06:43:04;;;;;;;19.48;15.48;;;;;;;;;;4994412;28;20133;-63
2023/02/23 06:45:30;;;;;;;14.38;10.15;;;;;;;;;;4996945;28;20109;-63
2023/02/23 06:47:56;;;;;;;26.27;19.10;;;;;;;;;;5015406;28;20113;-63
2023/02/23 06:50:21;;;;;;;9.40;8.43;;;;;;;;;;5015090;28;20112;-63
2023/02/23 06:52:47;;;;;;;11.50;10.30;;;;;;;;;;4997026;28;20057;-63
2023/02/23 06:55:13;;;;;;;12.82;11.40;;;;;;;;;;5014898;28;20042;-63
2023/02/23 06:57:38;;;;;;;14.70;13.20;;;;;;;;;;5015185;28;20034;-63
2023/02/23 07:00:04;;;;;;;17.40;15.57;;;;;;;;;;4996526;28;20038;-64
2023/02/23 07:02:29;;;;;;;13.55;10.27;;;;;;;;;;5013950;28;20026;-63
2023/02/23 07:04:54;;;;;;;14.15;9.98;;;;;;;;;;5013713;28;20037;-63
2023/02/23 07:07:21;;;;;;;16.17;10.45;;;;;;;;;;5021989;28;20034;-63
2023/02/23 07:09:46;;;;;;;13.88;10.50;;;;;;;;;;5032306;28;20038;-63
2023/02/23 07:12:11;;;;;;;14.57;10.27;;;;;;;;;;5032594;28;20099;-63
2023/02/23 07:14:38;;;;;;;10.60;8.93;;;;;;;;;;5032663;28;20029;-72
2023/02/23 07:17:03;;;;;;;29.05;24.00;;;;;;;;;;5032553;28;20074;-63
2023/02/23 07:19:29;;;;;;;13.88;11.45;;;;;;;;;;5014756;28;20378;-63
2023/02/23 07:21:55;;;;;;;15.35;12.80;;;;;;;;;;5015209;28;20128;-64
2023/02/23 07:24:21;;;;;;;14.90;10.15;;;;;;;;;;5032356;28;20507;-71
2023/02/23 07:26:48;;;;;;;17.75;15.00;;;;;;;;;;5014611;28;20025;-71
2023/02/23 07:29:13;;;;;;;14.18;10.80;;;;;;;;;;5014790;28;20032;-64
2023/02/23 07:31:40;;;;;;;12.95;10.05;;;;;;;;;;5015900;28;20025;-63
2023/02/23 07:34:05;;;;;;;12.30;9.38;;;;;;;;;;5016290;28;20481;-63
2023/02/23 07:36:31;;;;;;;14.73;11.57;;;;;;;;;;4999960;28;20112;-63
2023/02/23 07:39:29;;;;;;;19.98;15.02;;;;;;;;;;5004811;23;20048;-71
2023/02/23 07:41:55;;;;;;;15.10;11.02;;;;;;;;;;4918362;29;20043;-71
2023/02/23 07:44:21;;;;;;;12.40;9.30;;;;;;;;;;4920191;29;20118;-72
2023/02/23 07:46:47;;;;;;;14.02;11.00;;;;;;;;;;4919710;29;20111;-72
2023/02/23 07:49:12;;;;;;;17.15;11.73;;;;;;;;;;4920411;29;20035;-71
2023/02/23 07:51:38;;;;;;;12.80;10.10;;;;;;;;;;4936839;29;20039;-63
2023/02/23 07:54:04;;;;;;;16.50;13.65;;;;;;;;;;4949782;29;20046;-63
2023/02/23 07:56:29;;;;;;;13.50;10.65;;;;;;;;;;4936770;29;20032;-63
2023/02/23 07:58:55;;;;;;;24.55;17.27;;;;;;;;;;4936516;29;20107;-63
2023/02/23 08:01:20;;;;;;;89.07;62.75;;;;;;;;;;4936290;29;20086;-63
2023/02/23 08:03:48;;;;;;;20.52;15.95;;;;;;;;;;4936728;29;20087;-63
2023/02/23 08:06:14;;;;;;;56.00;40.10;;;;;;;;;;4951145;29;20036;-63
2023/02/23 08:08:40;;;;;;;17.23;14.57;;;;;;;;;;4919692;29;20042;-71
2023/02/23 08:11:05;;;;;;;14.65;10.63;;;;;;;;;;4919629;29;20032;-71
2023/02/23 08:13:31;;;;;;;13.07;9.25;;;;;;;;;;4936357;29;20498;-71
2023/02/23 08:15:56;;;;;;;15.95;12.23;;;;;;;;;;4903517;29;20031;-71
2023/02/23 08:18:22;;;;;;;16.00;12.77;;;;;;;;;;4919280;29;20040;-71
2023/02/23 08:20:47;;;;;;;14.63;9.38;;;;;;;;;;4919423;29;20028;-71
2023/02/23 08:23:13;;;;;;;14.55;10.43;;;;;;;;;;4940273;29;20019;-71
2023/02/23 08:25:38;;;;;;;12.38;8.80;;;;;;;;;;4940464;29;20038;-71
2023/02/23 08:28:05;;;;;;;12.93;8.85;;;;;;;;;;4940140;29;20067;-71
2023/02/23 08:30:31;;;;;;;16.90;10.80;;;;;;;;;;4939863;29;20365;-71
2023/02/23 08:32:57;;;;;;;15.77;10.15;;;;;;;;;;4939109;29;20103;-71
2023/02/23 08:35:26;;;;;;;13.02;8.07;;;;;;;;;;4940062;29;20484;-71
2023/02/23 08:37:51;;;;;;;16.63;10.77;;;;;;;;;;4922894;29;20126;-63
2023/02/23 08:40:18;;;;;;;20.95;13.80;;;;;;;;;;4931931;29;20119;-63
2023/02/23 08:42:44;;;;;;;11.38;8.70;;;;;;;;;;4959220;29;20082;-63
2023/02/23 08:45:10;;;;;;;13.68;8.82;;;;;;;;;;4957351;29;20035;-63
2023/02/23 08:47:36;;;;;;;14.88;9.98;;;;;;;;;;4957574;29;20479;-63
2023/02/23 08:50:02;;;;;;;15.73;10.38;;;;;;;;;;4957138;29;20031;-63
2023/02/23 08:52:28;;;;;;;14.02;9.25;;;;;;;;;;4957417;29;20090;-64
2023/02/23 08:54:55;;;;;;;12.45;9.15;;;;;;;;;;4971910;28;20085;-63
2023/02/23 08:57:20;;;;;;;12.73;9.13;;;;;;;;;;4957101;29;20035;-63
2023/02/23 08:59:46;;;;;;;15.60;10.27;;;;;;;;;;4958560;29;20027;-63
2023/02/23 09:02:12;;;;;;;24.25;12.25;;;;;;;;;;4958970;29;20027;-63
2023/02/23 09:04:40;;;;;;;13.02;8.85;;;;;;;;;;4973511;28;20034;-63
2023/02/23 09:07:06;;;;;;;13.48;9.52;;;;;;;;;;4958677;29;20039;-63
2023/02/23 09:09:33;;;;;;;12.65;9.10;;;;;;;;;;4958924;29;20036;-63
2023/02/23 09:11:59;;;;;;;15.82;10.18;;;;;;;;;;4958854;29;20377;-63
2023/02/23 09:14:25;;;;;;;17.88;11.18;;;;;;;;;;4958765;29;20031;-63
2023/02/23 09:16:50;;;;;;;24.55;13.23;;;;;;;;;;4958052;28;20027;-63
2023/02/23 09:19:15;;;;;;;20.52;12.23;;;;;;;;;;4958335;29;20494;-63
2023/02/23 09:21:42;;;;;;;25.55;13.40;;;;;;;;;;4958364;29;20036;-63
2023/02/23 09:24:09;;;;;;;25.50;13.77;;;;;;;;;;4958579;29;20069;-63
2023/02/23 09:26:38;;;;;;;20.55;11.52;;;;;;;;;;4958490;29;20058;-63
2023/02/23 09:29:04;;;;;;;15.90;10.50;;;;;;;;;;4958821;29;20415;-63
2023/02/23 09:31:30;;;;;;;12.70;8.98;;;;;;;;;;4958657;28;20035;-63
2023/02/23 09:33:55;;;;;;;17.52;11.13;;;;;;;;;;4958391;29;20069;-63
2023/02/23 09:36:22;;;;;;;21.85;11.68;;;;;;;;;;4941757;29;20037;-63
2023/02/23 09:38:51;;;;;;;19.20;12.18;;;;;;;;;;4958527;29;20027;-63
2023/02/23 09:41:26;;;;;;;16.80;10.90;;;;;;;;;;4957786;29;20051;-63
2023/02/23 09:44:14;;;;;;;18.15;11.15;;;;;;;;;;4958603;29;20032;-71
2023/02/23 09:46:52;;;;;;;20.92;13.43;;;;;;;;;;4958238;29;20075;-71
2023/02/23 09:49:18;;;;;;;15.90;11.27;;;;;;;;;;4957864;29;20561;-71
2023/02/23 09:51:47;;;;;;;22.17;13.35;;;;;;;;;;4958166;29;20034;-71
2023/02/23 09:54:15;;;;;;;15.88;10.88;;;;;;;;;;4957854;29;20105;-71
2023/02/23 09:56:45;;;;;;;17.23;10.48;;;;;;;;;;4957708;29;20502;-71
2023/02/23 09:59:12;;;;;;;21.90;12.25;;;;;;;;;;4957975;29;20110;-71
2023/02/23 10:02:11;;;;;;;18.10;11.77;;;;;;;;;;4979726;23;20399;-63
2023/02/23 10:04:45;;;;;;;16.48;9.60;;;;;;;;;;5001139;23;20403;-71
2023/02/23 10:07:14;;;;;;;14.73;9.10;;;;;;;;;;4996343;28;20035;-71
2023/02/23 10:09:42;;;;;;;15.77;9.45;;;;;;;;;;4996482;28;20484;-71
2023/02/23 10:12:07;;;;;;;14.02;8.68;;;;;;;;;;4996498;28;20371;-71
2023/02/23 10:17:33;;;;;;;16.45;9.20;;;;;;;;;;4956282;29;20051;-63
2023/02/23 10:20:10;;;;;;;16.30;9.35;;;;;;;;;;4957172;29;20031;-63
2023/02/23 10:22:36;;;;;;;13.73;9.02;;;;;;;;;;4957504;29;20042;-64
2023/02/23 10:25:05;;;;;;;14.32;9.60;;;;;;;;;;4957241;29;20050;-63
2023/02/23 10:27:40;;;;;;;18.08;9.93;;;;;;;;;;4972096;28;20024;-63
2023/02/23 10:30:15;;;;;;;16.17;10.48;;;;;;;;;;4940780;29;20043;-63
2023/02/23 10:32:47;;;;;;;16.08;10.40;;;;;;;;;;4957124;29;20039;-63
2023/02/23 10:35:15;;;;;;;16.65;10.93;;;;;;;;;;4939982;29;20472;-63
2023/02/23 10:37:41;;;;;;;19.45;11.07;;;;;;;;;;4957025;29;20027;-71
2023/02/23 10:40:12;;;;;;;13.13;8.98;;;;;;;;;;4957168;29;20046;-71
2023/02/23 10:42:38;;;;;;;15.95;9.88;;;;;;;;;;4957099;29;20123;-71
2023/02/23 10:45:13;;;;;;;16.40;9.52;;;;;;;;;;4956751;28;20130;-71
2023/02/23 10:47:39;;;;;;;16.58;9.77;;;;;;;;;;4956803;29;20035;-71
2023/02/23 10:50:06;;;;;;;17.13;10.80;;;;;;;;;;4957075;29;20042;-71
2023/02/23 10:52:40;;;;;;;17.55;10.55;;;;;;;;;;4923704;29;20471;-71
2023/02/23 10:55:07;;;;;;;15.15;9.77;;;;;;;;;;4939448;29;20506;-71
2023/02/23 10:57:36;;;;;;;32.58;18.20;;;;;;;;;;4956855;29;20027;-72
2023/02/23 11:00:05;;;;;;;27.35;16.63;;;;;;;;;;4939268;29;20059;-72
2023/02/23 11:02:31;;;;;;;99.35;58.25;;;;;;;;;;4956811;29;20016;-71
2023/02/23 11:04:57;;;;;;;16.33;10.18;;;;;;;;;;4956747;29;20038;-71
2023/02/23 11:07:24;;;;;;;15.55;10.15;;;;;;;;;;4956480;29;20027;-71
2023/02/23 11:09:52;;;;;;;15.18;10.43;;;;;;;;;;4956707;29;20031;-71
2023/02/23 11:12:23;;;;;;;15.05;9.85;;;;;;;;;;4956401;29;20034;-63
2023/02/23 11:14:50;;;;;;;16.75;10.60;;;;;;;;;;4939366;28;20074;-63
2023/02/23 11:17:35;;;;;;;14.98;10.27;;;;;;;;;;4976301;28;20038;-63
2023/02/23 11:20:06;;;;;;;15.05;9.27;;;;;;;;;;4976576;28;20518;-63
2023/02/23 11:22:33;;;;;;;18.27;11.38;;;;;;;;;;4974623;28;20031;-63
2023/02/23 11:25:02;;;;;;;25.90;13.45;;;;;;;;;;4975731;28;20482;-63
2023/02/23 11:27:29;;;;;;;18.20;10.63;;;;;;;;;;4974178;28;20466;-63
2023/02/23 11:29:56;;;;;;;13.32;9.27;;;;;;;;;;4975394;28;20034;-64
2023/02/23 11:32:26;;;;;;;16.92;10.75;;;;;;;;;;4975391;28;20035;-71
2023/02/23 11:35:10;;;;;;;82.68;38.80;;;;;;;;;;4973995;28;20130;-71
2023/02/23 11:37:36;;;;;;;23.95;12.85;;;;;;;;;;4975795;28;20031;-71
2023/02/23 11:40:17;;;;;;;38.35;18.90;;;;;;;;;;4973829;28;20027;-71
2023/02/23 11:42:53;;;;;;;15.57;10.30;;;;;;;;;;4975950;28;20423;-63
2023/02/23 11:45:21;;;;;;;16.05;9.77;;;;;;;;;;4973783;28;20490;-63
2023/02/23 11:47:48;;;;;;;14.40;9.73;;;;;;;;;;4975074;28;20475;-71
2023/02/23 11:50:22;;;;;;;13.55;9.15;;;;;;;;;;4975027;28;20479;-71
2023/02/23 11:55:31;;;;;;;14.23;9.50;;;;;;;;;;5001585;23;20050;-71
2023/02/23 11:58:15;;;;;;;17.30;12.13;;;;;;;;;;4976920;28;20057;-71
2023/02/23 12:00:40;;;;;;;15.73;10.07;;;;;;;;;;4994757;28;20038;-72
2023/02/23 12:03:06;;;;;;;19.38;11.52;;;;;;;;;;4994595;28;20037;-71
2023/02/23 12:05:31;;;;;;;23.77;14.55;;;;;;;;;;4976896;28;20494;-72
2023/02/23 12:08:14;;;;;;;18.60;11.05;;;;;;;;;;4994492;28;20015;-71
2023/02/23 12:10:46;;;;;;;16.35;10.10;;;;;;;;;;4994222;28;20030;-72
2023/02/23 12:13:19;;;;;;;13.57;9.60;;;;;;;;;;4994479;28;20064;-71
2023/02/23 12:15:51;;;;;;;15.93;9.73;;;;;;;;;;4990588;28;20117;-72
2023/02/23 12:18:32;;;;;;;35.33;20.42;;;;;;;;;;4993888;28;20076;-71
2023/02/23 12:20:57;;;;;;;;;;;;;;;;;;4994337;28;20066;-71
2023/02/23 12:23:25;;;;;;;14.43;9.67;;;;;;;;;;4993806;28;20324;-72
2023/02/23 12:26:03;;;;;;;16.83;9.98;;;;;;;;;;4976300;28;20102;-63
2023/02/23 12:28:42;;;;;;;17.50;9.75;;;;;;;;;;4976673;28;20046;-63
2023/02/23 12:31:41;;;;;;;14.57;9.50;;;;;;;;;;4993777;28;20134;-64
2023/02/23 12:34:16;;;;;;;18.35;11.57;;;;;;;;;;4961684;28;20054;-64
2023/02/23 12:40:06;;;;;;;37.17;28.73;;;;;;;;;;5022517;23;20046;-59
2023/02/23 12:42:34;;;;;;;34.65;22.38;;;;;;;;;;4975782;28;20533;-59
2023/02/23 12:45:03;;;;;;;18.17;12.05;;;;;;;;;;5008637;28;20134;-59
2023/02/23 12:47:32;;;;;;;23.20;13.68;;;;;;;;;;4991514;28;20449;-59
2023/02/23 12:50:03;;;;;;;29.30;20.27;;;;;;;;;;4992797;28;20438;-59
2023/02/23 12:52:30;;;;;;;25.52;16.20;;;;;;;;;;4993089;28;20041;-59
2023/02/23 12:54:56;;;;;;;20.85;15.45;;;;;;;;;;4993123;28;20030;-59
2023/02/23 12:57:31;;;;;;;16.92;12.25;;;;;;;;;;4993137;28;20022;-59
2023/02/23 12:59:56;;;;;;;17.10;10.57;;;;;;;;;;4993176;28;20130;-59
2023/02/23 13:02:29;;;;;;;15.90;12.27;;;;;;;;;;4993352;28;20073;-59
2023/02/23 13:05:01;;;;;;;18.15;11.80;;;;;;;;;;4975855;28;20042;-59
2023/02/23 13:07:40;;;;;;;15.52;10.73;;;;;;;;;;4994365;28;20037;-59
2023/02/23 13:10:19;;;;;;;68.60;49.25;;;;;;;;;;4996556;28;20042;-59
2023/02/23 13:12:50;;;;;;;24.38;18.50;;;;;;;;;;4996785;28;20067;-59
2023/02/23 13:15:18;;;;;;;;;;;;;;;;;;4997196;28;20031;-59
2023/02/23 13:17:43;;;;;;;21.85;14.02;;;;;;;;;;4996547;28;19917;-59
2023/02/23 13:20:15;;;;;;;20.02;14.43;;;;;;;;;;4979112;28;20027;-59
2023/02/23 13:22:40;;;;;;;18.95;11.48;;;;;;;;;;4996757;28;20033;-59
2023/02/23 13:25:28;;;;;;;16.77;11.60;;;;;;;;;;4996858;28;20027;-59
2023/02/23 13:27:58;;;;;;;17.80;12.52;;;;;;;;;;4996746;28;20030;-59
2023/02/23 13:30:24;;;;;;;18.65;11.88;;;;;;;;;;4979339;28;20030;-63
2023/02/23 13:32:50;;;;;;;32.63;18.25;;;;;;;;;;4994074;28;20921;-56
2023/02/23 13:35:17;;;;;;;33.55;19.58;;;;;;;;;;4993535;28;20030;-61
2023/02/23 13:37:51;;;;;;;20.85;13.02;;;;;;;;;;5006505;23;20058;-61
2023/02/23 13:40:22;;;;;;;21.27;13.43;;;;;;;;;;4995264;28;20394;-61
2023/02/23 13:42:47;;;;;;;17.90;11.30;;;;;;;;;;4994227;28;20037;-61
2023/02/23 13:45:15;;;;;;;30.77;21.80;;;;;;;;;;4995601;28;20027;-61
2023/02/23 13:47:47;;;;;;;55.15;38.05;;;;;;;;;;4995477;28;20478;-61
2023/02/23 13:50:15;;;;;;;68.68;43.13;;;;;;;;;;4995539;28;20141;-61
2023/02/23 13:52:42;;;;;;;84.53;52.58;;;;;;;;;;4994978;28;20034;-61
2023/02/23 13:55:31;;;;;;;34.42;22.52;;;;;;;;;;4995430;28;20057;-61
2023/02/23 13:58:04;;;;;;;38.42;20.60;;;;;;;;;;4982657;28;20047;-60
2023/02/23 14:00:30;;;;;;;46.10;26.77;;;;;;;;;;4995013;28;20044;-60
2023/02/23 14:02:55;;;;;;;42.50;28.95;;;;;;;;;;4995092;28;20117;-61
2023/02/23 14:05:24;;;;;;;34.45;24.67;;;;;;;;;;4994656;28;20423;-61
2023/02/23 14:07:53;;;;;;;25.83;17.73;;;;;;;;;;4995033;28;20406;-61
2023/02/23 14:10:24;;;;;;;21.00;12.25;;;;;;;;;;4995100;28;20036;-60
2023/02/23 14:13:03;;;;;;;16.30;10.63;;;;;;;;;;4994957;28;20053;-61
2023/02/23 14:15:28;;;;;;;21.20;12.00;;;;;;;;;;4994165;28;20120;-60
2023/02/23 14:17:57;;;;;;;21.77;14.55;;;;;;;;;;4992232;28;20082;-60
2023/02/23 14:20:34;;;;;;;19.77;12.68;;;;;;;;;;4993147;28;20056;-60
2023/02/23 14:23:18;;;;;;;29.88;16.10;;;;;;;;;;4993674;28;20169;-61
2023/02/23 14:25:43;;;;;;;20.33;11.80;;;;;;;;;;4993963;28;20041;-60
2023/02/23 14:28:37;;;;;;;16.30;9.95;;;;;;;;;;4994347;28;20022;-60
2023/02/23 14:31:09;;;;;;;17.25;10.50;;;;;;;;;;4988514;28;20053;-60
2023/02/23 14:33:40;;;;;;;17.73;11.23;;;;;;;;;;4993572;28;20041;-60
2023/02/23 14:36:21;;;;;;;17.30;10.45;;;;;;;;;;4993487;28;20034;-60
2023/02/23 14:38:56;;;;;;;15.25;10.93;;;;;;;;;;4992600;28;20042;-61
2023/02/23 14:41:22;;;;;;;16.55;10.70;;;;;;;;;;4991917;28;20545;-61
2023/02/23 14:43:51;;;;;;;14.73;11.00;;;;;;;;;;4993477;28;20030;-61
2023/02/23 14:46:19;;;;;;;19.50;12.57;;;;;;;;;;4992461;28;20057;-61
2023/02/23 14:48:57;;;;;;;21.33;11.32;;;;;;;;;;4993804;28;20497;-61
2023/02/23 14:51:24;;;;;;;18.40;11.68;;;;;;;;;;4994014;28;20165;-60
2023/02/23 14:53:52;;;;;;;21.27;12.23;;;;;;;;;;4994274;28;20022;-60
2023/02/23 14:56:19;;;;;;;20.08;11.82;;;;;;;;;;4994074;28;20064;-60
2023/02/23 14:58:48;;;;;;;18.48;11.85;;;;;;;;;;4993806;28;20105;-60
2023/02/23 15:01:29;;;;;;;19.33;11.77;;;;;;;;;;4994325;28;20026;-60
2023/02/23 15:04:08;;;;;;;19.65;11.15;;;;;;;;;;4993306;28;20508;-61
2023/02/23 15:06:34;;;;;;;18.63;10.50;;;;;;;;;;4992686;28;20033;-60
2023/02/23 15:09:01;;;;;;;19.08;11.93;;;;;;;;;;4992584;28;20034;-60
2023/02/23 15:11:27;;;;;;;22.90;13.32;;;;;;;;;;4992510;28;20041;-60
2023/02/23 15:13:53;;;;;;;22.70;13.27;;;;;;;;;;4992691;28;20031;-60
2023/02/23 15:16:33;;;;;;;22.13;13.57;;;;;;;;;;4992507;28;20371;-60
2023/02/23 15:18:59;;;;;;;21.13;12.63;;;;;;;;;;4993127;28;20049;-60
2023/02/23 15:21:25;;;;;;;21.00;12.82;;;;;;;;;;4993641;28;20060;-61
2023/02/23 15:23:57;;;;;;;21.95;12.93;;;;;;;;;;4993666;28;20054;-60
2023/02/23 15:26:30;;;;;;;22.40;14.13;;;;;;;;;;4992110;28;20038;-60
2023/02/23 15:29:15;;;;;;;28.08;16.05;;;;;;;;;;4993686;28;20077;-62
2023/02/23 15:31:51;;;;;;;26.08;17.17;;;;;;;;;;4993524;28;20040;-60
2023/02/23 15:34:21;;;;;;;38.63;24.25;;;;;;;;;;4993909;28;20030;-60
2023/02/23 15:36:51;;;;;;;53.42;31.73;;;;;;;;;;4993780;28;20449;-60
2023/02/23 15:39:19;;;;;;;51.80;32.95;;;;;;;;;;5012636;28;20120;-61
2023/02/23 15:41:47;;;;;;;67.50;50.72;;;;;;;;;;5013227;28;20477;-61
2023/02/23 15:44:14;;;;;;;92.85;68.78;;;;;;;;;;5013098;28;20033;-60
2023/02/23 15:46:40;;;;;;;64.25;44.70;;;;;;;;;;4995113;28;20030;-60
2023/02/23 15:49:09;;;;;;;72.28;51.00;;;;;;;;;;5012858;28;20030;-60
2023/02/23 15:51:48;;;;;;;56.97;33.00;;;;;;;;;;5012548;28;20034;-60
2023/02/23 15:54:18;;;;;;;71.65;45.67;;;;;;;;;;5012869;28;20030;-62
2023/02/23 15:56:48;;;;;;;64.85;45.45;;;;;;;;;;4995762;28;20096;-62
2023/02/23 15:59:19;;;;;;;48.70;33.45;;;;;;;;;;4995251;28;20037;-62
2023/02/23 16:01:45;;;;;;;56.45;36.60;;;;;;;;;;5012781;28;20058;-62
2023/02/23 16:04:14;;;;;;;52.33;34.33;;;;;;;;;;5012331;28;20053;-61
2023/02/23 16:06:49;;;;;;;54.40;33.05;;;;;;;;;;5012756;28;20454;-60
2023/02/23 16:09:22;;;;;;;59.50;35.10;;;;;;;;;;5012605;28;20036;-62
2023/02/23 16:11:59;;;;;;;88.90;48.60;;;;;;;;;;4995124;28;20029;-62
2023/02/23 16:14:25;;;;;;;94.07;55.30;;;;;;;;;;5012396;28;20030;-62